createdAt,value
2019-05-21T00:00:03.697Z,0
2019-05-21T00:01:03.433Z,0
2019-05-21T00:02:03.668Z,0
2019-05-21T00:03:03.471Z,0
2019-05-21T00:04:03.686Z,0
2019-05-21T00:05:03.407Z,0
2019-05-21T00:06:06.697Z,0
2019-05-21T00:07:10.383Z,0
2019-05-21T00:08:03.648Z,0
2019-05-21T00:09:03.224Z,0
2019-05-21T00:10:03.648Z,0
2019-05-21T00:11:03.402Z,0
2019-05-21T00:12:03.797Z,0
2019-05-21T00:13:03.628Z,0
2019-05-21T00:14:03.391Z,0
2019-05-21T00:15:03.395Z,0
2019-05-21T00:16:03.393Z,0
2019-05-21T00:17:05.274Z,0
2019-05-21T00:18:06.430Z,0
2019-05-21T00:19:03.393Z,0
2019-05-21T00:20:03.687Z,0
2019-05-21T00:21:03.122Z,0
2019-05-21T00:22:03.623Z,0
2019-05-21T00:23:03.689Z,0
2019-05-21T00:24:03.383Z,0
2019-05-21T00:25:03.434Z,0
2019-05-21T00:26:03.351Z,0
2019-05-21T00:27:03.355Z,0
2019-05-21T00:28:09.620Z,0
2019-05-21T00:29:03.597Z,0
2019-05-21T00:30:03.646Z,0
2019-05-21T00:31:03.091Z,0
2019-05-21T00:32:03.633Z,0
2019-05-21T00:33:03.596Z,0
2019-05-21T00:34:03.100Z,0
2019-05-21T00:35:02.832Z,0
2019-05-21T00:36:03.325Z,0
2019-05-21T00:37:03.819Z,0
2019-05-21T00:38:04.502Z,0
2019-05-21T00:39:06.350Z,0
2019-05-21T00:40:03.304Z,0
2019-05-21T00:41:03.653Z,0
2019-05-21T00:42:03.327Z,0
2019-05-21T00:43:03.056Z,0
2019-05-21T00:44:03.295Z,0
2019-05-21T00:45:03.549Z,0
2019-05-21T00:46:03.299Z,0
2019-05-21T00:47:03.411Z,0
2019-05-21T00:48:05.734Z,0
2019-05-21T00:49:06.593Z,0
2019-05-21T00:50:06.596Z,0
2019-05-21T00:51:03.271Z,0
2019-05-21T00:52:18.157Z,0
2019-05-21T00:53:03.267Z,0
2019-05-21T00:54:03.431Z,0
2019-05-21T00:55:03.021Z,0
2019-05-21T00:56:03.301Z,0
2019-05-21T00:57:03.057Z,0
2019-05-21T00:58:03.256Z,0
2019-05-21T00:59:03.253Z,0
2019-05-21T01:00:06.963Z,0
2019-05-21T01:01:03.496Z,0
2019-05-21T01:02:03.508Z,0
2019-05-21T01:03:03.107Z,0
2019-05-21T01:04:03.540Z,0
2019-05-21T01:05:08.125Z,0
2019-05-21T01:06:03.235Z,0
2019-05-21T01:07:03.234Z,0
2019-05-21T01:08:03.233Z,0
2019-05-21T01:09:03.528Z,0
2019-05-21T01:10:03.957Z,0
2019-05-21T01:11:06.631Z,0
2019-05-21T01:12:03.475Z,0
2019-05-21T01:13:03.224Z,0
2019-05-21T01:14:03.004Z,0
2019-05-21T01:15:03.537Z,0
2019-05-21T01:16:03.193Z,0
2019-05-21T01:17:03.202Z,0
2019-05-21T01:18:02.941Z,0
2019-05-21T01:19:03.449Z,0
2019-05-21T01:20:02.940Z,0
2019-05-21T01:21:06.028Z,0
2019-05-21T01:22:04.614Z,0
2019-05-21T01:23:03.236Z,0
2019-05-21T01:24:03.414Z,0
2019-05-21T01:25:03.178Z,0
2019-05-21T01:26:03.184Z,0
2019-05-21T01:27:03.429Z,0
2019-05-21T01:28:03.421Z,0
2019-05-21T01:29:03.515Z,0
2019-05-21T01:30:03.173Z,0
2019-05-21T01:31:03.166Z,0
2019-05-21T01:32:05.159Z,0
2019-05-21T01:33:06.422Z,0
2019-05-21T01:34:03.131Z,0
2019-05-21T01:35:26.032Z,0
2019-05-21T01:36:03.129Z,0
2019-05-21T01:37:03.183Z,0
2019-05-21T01:38:03.425Z,0
2019-05-21T01:39:03.166Z,0
2019-05-21T01:40:03.376Z,0
2019-05-21T01:41:03.357Z,0
2019-05-21T01:42:03.187Z,0
2019-05-21T01:43:05.954Z,0
2019-05-21T01:44:03.111Z,0
2019-05-21T01:45:03.386Z,0
2019-05-21T01:46:03.115Z,0
2019-05-21T01:47:03.385Z,0
2019-05-21T01:48:02.849Z,0
2019-05-21T01:49:03.221Z,0
2019-05-21T01:50:03.106Z,0
2019-05-21T01:51:02.837Z,0
2019-05-21T01:52:03.400Z,0
2019-05-21T01:53:04.971Z,0
2019-05-21T01:54:06.116Z,0
2019-05-21T01:55:02.820Z,0
2019-05-21T01:56:03.391Z,0
2019-05-21T01:57:02.873Z,0
2019-05-21T01:58:03.305Z,0
2019-05-21T01:59:02.892Z,0
2019-05-21T02:00:02.809Z,0
2019-05-21T02:01:03.071Z,0
2019-05-21T02:02:03.353Z,0
2019-05-21T02:03:03.051Z,0
2019-05-21T02:04:09.568Z,0
2019-05-21T02:05:06.322Z,0
2019-05-21T02:06:02.810Z,0
2019-05-21T02:07:03.293Z,0
2019-05-21T02:08:03.047Z,0
2019-05-21T02:09:02.788Z,0
2019-05-21T02:10:03.304Z,0
2019-05-21T02:11:03.270Z,0
2019-05-21T02:12:03.082Z,0
2019-05-21T02:13:03.267Z,0
2019-05-21T02:14:03.261Z,0
2019-05-21T02:15:06.093Z,0
2019-05-21T02:16:03.051Z,0
2019-05-21T02:17:03.259Z,0
2019-05-21T02:18:02.993Z,0
2019-05-21T02:19:03.231Z,0
2019-05-21T02:20:02.999Z,0
2019-05-21T02:21:03.267Z,0
2019-05-21T02:22:03.228Z,0
2019-05-21T02:23:02.982Z,0
2019-05-21T02:24:03.265Z,0
2019-05-21T02:25:03.383Z,0
2019-05-21T02:26:06.030Z,0
2019-05-21T02:27:02.982Z,0
2019-05-21T02:28:02.974Z,0
2019-05-21T02:29:03.208Z,0
2019-05-21T02:30:03.253Z,0
2019-05-21T02:31:04.156Z,0
2019-05-21T02:32:03.001Z,0
2019-05-21T02:33:03.185Z,0
2019-05-21T02:34:02.943Z,0
2019-05-21T02:35:03.246Z,0
2019-05-21T02:36:05.976Z,0
2019-05-21T02:37:06.532Z,0
2019-05-21T02:38:03.185Z,0
2019-05-21T02:39:03.166Z,0
2019-05-21T02:40:03.160Z,0
2019-05-21T02:41:02.691Z,0
2019-05-21T02:42:03.487Z,0
2019-05-21T02:43:03.165Z,0
2019-05-21T02:44:03.139Z,0
2019-05-21T02:45:02.654Z,0
2019-05-21T02:46:02.904Z,0
2019-05-21T02:47:06.277Z,0
2019-05-21T02:48:09.410Z,0
2019-05-21T02:49:03.128Z,0
2019-05-21T02:50:03.153Z,0
2019-05-21T02:51:02.877Z,0
2019-05-21T02:52:02.636Z,0
2019-05-21T02:53:03.110Z,0
2019-05-21T02:54:02.873Z,0
2019-05-21T02:55:03.201Z,0
2019-05-21T02:56:03.139Z,0
2019-05-21T02:57:02.680Z,0
2019-05-21T02:58:04.697Z,0
2019-05-21T02:59:02.888Z,0
2019-05-21T03:00:03.092Z,0
2019-05-21T03:01:03.098Z,0
2019-05-21T03:02:02.842Z,0
2019-05-21T03:03:03.082Z,0
2019-05-21T03:04:03.140Z,0
2019-05-21T03:05:03.066Z,0
2019-05-21T03:06:19.888Z,0
2019-05-21T03:07:02.816Z,0
2019-05-21T03:08:06.115Z,0
2019-05-21T03:09:09.085Z,0
2019-05-21T03:10:02.573Z,0
2019-05-21T03:11:02.834Z,0
2019-05-21T03:12:04.452Z,0
2019-05-21T03:13:02.845Z,0
2019-05-21T03:14:02.819Z,0
2019-05-21T03:15:02.793Z,0
2019-05-21T03:16:03.049Z,0
2019-05-21T03:17:03.037Z,4
2019-05-21T03:18:02.313Z,4
2019-05-21T03:19:09.051Z,4
2019-05-21T03:20:05.585Z,4
2019-05-21T03:21:02.790Z,4
2019-05-21T03:22:03.051Z,0
2019-05-21T03:23:02.555Z,4
2019-05-21T03:24:03.024Z,4
2019-05-21T03:25:07.132Z,4
2019-05-21T03:26:03.017Z,4
2019-05-21T03:27:02.511Z,4
2019-05-21T03:28:03.018Z,8
2019-05-21T03:29:02.506Z,4
2019-05-21T03:30:05.782Z,8
2019-05-21T03:31:02.830Z,8
2019-05-21T03:32:03.212Z,12
2019-05-21T03:33:02.776Z,16
2019-05-21T03:34:03.037Z,16
2019-05-21T03:35:02.999Z,16
2019-05-21T03:36:03.019Z,20
2019-05-21T03:37:02.748Z,20
2019-05-21T03:38:02.486Z,20
2019-05-21T03:39:02.494Z,20
2019-05-21T03:40:03.893Z,20
2019-05-21T03:41:05.772Z,20
2019-05-21T03:42:09.793Z,24
2019-05-21T03:43:02.964Z,24
2019-05-21T03:44:02.707Z,24
2019-05-21T03:45:12.044Z,28
2019-05-21T03:46:02.748Z,24
2019-05-21T03:47:02.951Z,28
2019-05-21T03:48:02.700Z,24
2019-05-21T03:49:02.933Z,24
2019-05-21T03:50:02.930Z,28
2019-05-21T03:51:05.999Z,32
2019-05-21T03:52:06.936Z,36
2019-05-21T03:53:02.584Z,40
2019-05-21T03:54:02.938Z,44
2019-05-21T03:55:07.351Z,48
2019-05-21T03:56:02.424Z,48
2019-05-21T03:57:02.455Z,52
2019-05-21T03:58:02.748Z,60
2019-05-21T03:59:02.666Z,64
2019-05-21T04:00:02.938Z,72
2019-05-21T04:01:02.671Z,68
2019-05-21T04:02:05.462Z,68
2019-05-21T04:03:02.673Z,72
2019-05-21T04:04:02.384Z,76
2019-05-21T04:05:02.679Z,76
2019-05-21T04:06:02.391Z,72
2019-05-21T04:07:02.643Z,76
2019-05-21T04:08:02.872Z,80
2019-05-21T04:09:02.876Z,92
2019-05-21T04:10:02.610Z,108
2019-05-21T04:11:02.875Z,120
2019-05-21T04:12:03.108Z,116
2019-05-21T04:13:04.719Z,120
2019-05-21T04:14:02.583Z,124
2019-05-21T04:15:02.856Z,128
2019-05-21T04:16:02.613Z,132
2019-05-21T04:17:02.344Z,140
2019-05-21T04:18:02.591Z,144
2019-05-21T04:19:02.870Z,144
2019-05-21T04:20:02.864Z,148
2019-05-21T04:21:02.324Z,152
2019-05-21T04:22:02.852Z,152
2019-05-21T04:23:04.986Z,164
2019-05-21T04:24:11.624Z,176
2019-05-21T04:25:02.835Z,192
2019-05-21T04:26:02.829Z,196
2019-05-21T04:27:02.350Z,196
2019-05-21T04:28:02.612Z,220
2019-05-21T04:29:02.331Z,244
2019-05-21T04:30:02.789Z,272
2019-05-21T04:31:02.547Z,264
2019-05-21T04:32:02.808Z,256
2019-05-21T04:33:02.523Z,264
2019-05-21T04:34:04.137Z,276
2019-05-21T04:35:05.561Z,264
2019-05-21T04:36:02.815Z,252
2019-05-21T04:37:26.056Z,276
2019-05-21T04:38:02.782Z,292
2019-05-21T04:39:02.529Z,304
2019-05-21T04:40:02.380Z,304
2019-05-21T04:41:02.751Z,296
2019-05-21T04:42:02.739Z,308
2019-05-21T04:43:07.131Z,336
2019-05-21T04:44:02.524Z,368
2019-05-21T04:45:09.022Z,400
2019-05-21T04:46:02.254Z,404
2019-05-21T04:47:02.501Z,416
2019-05-21T04:48:02.490Z,432
2019-05-21T04:49:02.795Z,424
2019-05-21T04:50:02.520Z,412
2019-05-21T04:51:02.746Z,400
2019-05-21T04:52:02.483Z,416
2019-05-21T04:53:02.470Z,436
2019-05-21T04:54:02.733Z,436
2019-05-21T04:55:03.649Z,484
2019-05-21T04:56:05.651Z,476
2019-05-21T04:57:02.448Z,476
2019-05-21T04:58:02.456Z,460
2019-05-21T04:59:02.702Z,476
2019-05-21T05:00:02.448Z,452
2019-05-21T05:01:02.484Z,448
2019-05-21T05:02:02.834Z,448
2019-05-21T05:03:02.679Z,460
2019-05-21T05:04:02.535Z,428
2019-05-21T05:05:02.442Z,448
2019-05-21T05:06:05.195Z,484
2019-05-21T05:07:05.468Z,532
2019-05-21T05:08:02.440Z,552
2019-05-21T05:09:02.404Z,584
2019-05-21T05:10:02.420Z,596
2019-05-21T05:11:02.166Z,548
2019-05-21T05:12:02.575Z,564
2019-05-21T05:13:02.697Z,576
2019-05-21T05:14:02.421Z,580
2019-05-21T05:15:02.153Z,564
2019-05-21T05:16:04.207Z,624
2019-05-21T05:17:05.437Z,700
2019-05-21T05:18:02.386Z,772
2019-05-21T05:19:02.115Z,772
2019-05-21T05:20:02.388Z,772
2019-05-21T05:21:01.905Z,808
2019-05-21T05:22:02.199Z,792
2019-05-21T05:23:02.705Z,744
2019-05-21T05:24:02.663Z,668
2019-05-21T05:25:02.147Z,640
2019-05-21T05:26:02.391Z,608
2019-05-21T05:27:03.193Z,624
2019-05-21T05:28:06.663Z,772
2019-05-21T05:29:02.377Z,856
2019-05-21T05:30:02.073Z,900
2019-05-21T05:31:02.617Z,888
2019-05-21T05:32:02.099Z,884
2019-05-21T05:33:02.590Z,872
2019-05-21T05:34:02.061Z,888
2019-05-21T05:35:02.300Z,888
2019-05-21T05:36:02.075Z,872
2019-05-21T05:37:02.057Z,860
2019-05-21T05:38:05.088Z,860
2019-05-21T05:39:05.072Z,860
2019-05-21T05:40:02.067Z,868
2019-05-21T05:41:02.282Z,852
2019-05-21T05:42:02.273Z,808
2019-05-21T05:43:02.285Z,824
2019-05-21T05:44:04.188Z,880
2019-05-21T05:45:02.528Z,928
2019-05-21T05:46:02.525Z,972
2019-05-21T05:47:02.257Z,1048
2019-05-21T05:48:02.264Z,1096
2019-05-21T05:49:06.719Z,1132
2019-05-21T05:50:08.553Z,1152
2019-05-21T05:51:02.285Z,1168
2019-05-21T05:52:02.235Z,1192
2019-05-21T05:53:02.503Z,1204
2019-05-21T05:54:02.266Z,1216
2019-05-21T05:55:02.277Z,1224
2019-05-21T05:56:01.989Z,1216
2019-05-21T05:57:02.319Z,1192
2019-05-21T05:58:02.227Z,1180
2019-05-21T05:59:02.341Z,1156
2019-05-21T06:00:03.594Z,1128
2019-05-21T06:01:02.262Z,1120
2019-05-21T06:02:02.504Z,1092
2019-05-21T06:03:02.208Z,1084
2019-05-21T06:04:02.211Z,1044
2019-05-21T06:05:02.235Z,1048
2019-05-21T06:06:02.444Z,1052
2019-05-21T06:07:01.974Z,1080
2019-05-21T06:08:07.231Z,1100
2019-05-21T06:09:02.480Z,1076
2019-05-21T06:10:03.383Z,1064
2019-05-21T06:11:05.489Z,1064
2019-05-21T06:12:02.329Z,1048
2019-05-21T06:13:01.947Z,1084
2019-05-21T06:14:03.235Z,1176
2019-05-21T06:15:02.961Z,1264
2019-05-21T06:16:02.168Z,1328
2019-05-21T06:17:02.745Z,1356
2019-05-21T06:18:02.393Z,1380
2019-05-21T06:19:02.404Z,1428
2019-05-21T06:20:01.913Z,1472
2019-05-21T06:21:08.685Z,1464
2019-05-21T06:22:05.237Z,1432
2019-05-21T06:23:02.394Z,1428
2019-05-21T06:24:01.905Z,1556
2019-05-21T06:25:02.496Z,1656
2019-05-21T06:26:01.900Z,1624
2019-05-21T06:27:01.887Z,1632
2019-05-21T06:28:02.368Z,1724
2019-05-21T06:29:02.149Z,1784
2019-05-21T06:30:01.864Z,1760
2019-05-21T06:31:01.882Z,1696
2019-05-21T06:32:05.214Z,1584
2019-05-21T06:33:02.371Z,1536
2019-05-21T06:34:02.105Z,1520
2019-05-21T06:35:02.350Z,1548
2019-05-21T06:36:02.107Z,1576
2019-05-21T06:37:02.105Z,1592
2019-05-21T06:38:19.038Z,1628
2019-05-21T06:39:02.328Z,1640
2019-05-21T06:40:02.356Z,1628
2019-05-21T06:41:02.120Z,1584
2019-05-21T06:42:03.483Z,1596
2019-05-21T06:43:05.109Z,1676
2019-05-21T06:44:02.381Z,1788
2019-05-21T06:45:02.587Z,1888
2019-05-21T06:46:01.807Z,1912
2019-05-21T06:47:02.083Z,1964
2019-05-21T06:48:02.304Z,2012
2019-05-21T06:49:01.587Z,2112
2019-05-21T06:50:02.101Z,2164
2019-05-21T06:51:01.820Z,2220
2019-05-21T06:52:02.070Z,2272
2019-05-21T06:53:04.861Z,2300
2019-05-21T06:54:04.843Z,2308
2019-05-21T06:55:02.278Z,2260
2019-05-21T06:56:01.786Z,2316
2019-05-21T06:57:01.785Z,2232
2019-05-21T06:58:02.025Z,2160
2019-05-21T06:59:02.027Z,2136
2019-05-21T07:00:02.180Z,2084
2019-05-21T07:01:02.336Z,1996
2019-05-21T07:02:02.016Z,1936
2019-05-21T07:03:01.767Z,1920
2019-05-21T07:04:05.470Z,1832
2019-05-21T07:05:02.112Z,1816
2019-05-21T07:06:06.157Z,1788
2019-05-21T07:07:02.294Z,1744
2019-05-21T07:08:01.784Z,1648
2019-05-21T07:09:02.234Z,1544
2019-05-21T07:10:01.496Z,1576
2019-05-21T07:11:02.000Z,1692
2019-05-21T07:12:02.255Z,1736
2019-05-21T07:13:01.752Z,1832
2019-05-21T07:14:01.506Z,1988
2019-05-21T07:15:03.869Z,2056
2019-05-21T07:16:01.967Z,2052
2019-05-21T07:17:02.249Z,2072
2019-05-21T07:18:01.969Z,2112
2019-05-21T07:19:02.249Z,2116
2019-05-21T07:20:01.832Z,2108
2019-05-21T07:21:02.210Z,2112
2019-05-21T07:22:18.526Z,2104
2019-05-21T07:23:02.426Z,2100
2019-05-21T07:24:02.244Z,2104
2019-05-21T07:25:04.621Z,2128
2019-05-21T07:26:08.216Z,2160
2019-05-21T07:27:02.255Z,2212
2019-05-21T07:28:02.196Z,2256
2019-05-21T07:29:03.409Z,2312
2019-05-21T07:30:01.417Z,2384
2019-05-21T07:31:02.159Z,2432
2019-05-21T07:32:01.945Z,2480
2019-05-21T07:33:02.858Z,2552
2019-05-21T07:34:01.905Z,2616
2019-05-21T07:35:01.956Z,2692
2019-05-21T07:36:03.141Z,2776
2019-05-21T07:37:05.275Z,2852
2019-05-21T07:38:02.136Z,2956
2019-05-21T07:39:01.649Z,3080
2019-05-21T07:40:01.900Z,3184
2019-05-21T07:41:02.197Z,3268
2019-05-21T07:42:01.888Z,3380
2019-05-21T07:43:01.634Z,3532
2019-05-21T07:44:02.153Z,3624
2019-05-21T07:45:02.431Z,3748
2019-05-21T07:46:01.615Z,3808
2019-05-21T07:47:05.173Z,3888
2019-05-21T07:48:02.100Z,3852
2019-05-21T07:49:02.097Z,3868
2019-05-21T07:50:01.942Z,3920
2019-05-21T07:51:02.152Z,3984
2019-05-21T07:52:01.834Z,4064
2019-05-21T07:53:02.077Z,4168
2019-05-21T07:54:01.629Z,4288
2019-05-21T07:55:02.086Z,4368
2019-05-21T07:56:01.816Z,4448
2019-05-21T07:57:03.086Z,4544
2019-05-21T07:58:04.854Z,4524
2019-05-21T07:59:02.324Z,4500
2019-05-21T08:00:01.916Z,4452
2019-05-21T08:01:05.926Z,4408
2019-05-21T08:02:01.835Z,4420
2019-05-21T08:03:01.580Z,4436
2019-05-21T08:04:01.878Z,4484
2019-05-21T08:05:02.208Z,4540
2019-05-21T08:06:01.880Z,4496
2019-05-21T08:07:01.784Z,4388
2019-05-21T08:08:04.577Z,4364
2019-05-21T08:09:19.605Z,4316
2019-05-21T08:10:01.770Z,4260
2019-05-21T08:11:02.037Z,4196
2019-05-21T08:12:17.134Z,4208
2019-05-21T08:13:01.808Z,4132
2019-05-21T08:14:01.523Z,4048
2019-05-21T08:15:02.621Z,3940
2019-05-21T08:16:01.770Z,3896
2019-05-21T08:17:02.007Z,3716
2019-05-21T08:18:01.853Z,3712
2019-05-21T08:19:05.029Z,3748
2019-05-21T08:20:13.630Z,3852
2019-05-21T08:21:01.744Z,3924
2019-05-21T08:22:01.751Z,3868
2019-05-21T08:23:01.754Z,3748
2019-05-21T08:24:01.495Z,3560
2019-05-21T08:25:01.979Z,3464
2019-05-21T08:26:01.498Z,3356
2019-05-21T08:27:01.856Z,3276
2019-05-21T08:28:01.728Z,3280
2019-05-21T08:29:01.964Z,3296
2019-05-21T08:30:04.578Z,3304
2019-05-21T08:31:07.726Z,3276
2019-05-21T08:32:01.721Z,3240
2019-05-21T08:33:01.707Z,3100
2019-05-21T08:34:01.761Z,2936
2019-05-21T08:35:01.710Z,2940
2019-05-21T08:36:01.975Z,2956
2019-05-21T08:37:01.950Z,3036
2019-05-21T08:38:01.814Z,3104
2019-05-21T08:39:02.015Z,2984
2019-05-21T08:40:04.983Z,2908
2019-05-21T08:41:08.223Z,2940
2019-05-21T08:42:01.686Z,2956
2019-05-21T08:43:01.993Z,2804
2019-05-21T08:44:01.677Z,2668
2019-05-21T08:45:01.996Z,2612
2019-05-21T08:46:01.735Z,2452
2019-05-21T08:47:01.663Z,2604
2019-05-21T08:48:01.666Z,3000
2019-05-21T08:49:01.671Z,3272
2019-05-21T08:50:01.699Z,3188
2019-05-21T08:51:04.145Z,3252
2019-05-21T08:52:04.743Z,3396
2019-05-21T08:53:01.926Z,3352
2019-05-21T08:54:01.666Z,3548
2019-05-21T08:55:03.534Z,3500
2019-05-21T08:56:01.637Z,3588
2019-05-21T08:57:01.405Z,3580
2019-05-21T09:00:11.719Z,3652
2019-05-21T09:01:21.427Z,3608
2019-05-21T09:02:21.367Z,3648
2019-05-21T09:03:20.929Z,3600
2019-05-21T09:04:21.434Z,3500
2019-05-21T09:05:24.418Z,3528
2019-05-21T09:06:21.396Z,3336
2019-05-21T09:07:21.092Z,3176
2019-05-21T09:08:20.856Z,3104
2019-05-21T09:09:21.106Z,3276
2019-05-21T09:10:21.353Z,3352
2019-05-21T09:11:20.851Z,3500
2019-05-21T09:12:20.845Z,3324
2019-05-21T09:13:24.584Z,3392
2019-05-21T09:14:20.817Z,3320
2019-05-21T09:15:21.668Z,3248
2019-05-21T09:16:24.114Z,3340
2019-05-21T09:17:21.081Z,3304
2019-05-21T09:18:21.090Z,3244
2019-05-21T09:19:21.062Z,3272
2019-05-21T09:20:20.815Z,3544
2019-05-21T09:21:21.364Z,3540
2019-05-21T09:22:21.043Z,3644
2019-05-21T09:23:21.084Z,3628
2019-05-21T09:24:21.369Z,3560
2019-05-21T09:25:21.282Z,3744
2019-05-21T09:26:23.891Z,3744
2019-05-21T09:27:27.343Z,3652
2019-05-21T09:28:21.275Z,3548
2019-05-21T09:29:21.142Z,3740
2019-05-21T09:30:21.310Z,3716
2019-05-21T09:31:21.350Z,3656
2019-05-21T09:32:21.010Z,3552
2019-05-21T09:33:21.261Z,3572
2019-05-21T09:34:21.017Z,3392
2019-05-21T09:35:21.347Z,3120
2019-05-21T09:36:24.616Z,3040
2019-05-21T09:37:26.938Z,2924
2019-05-21T09:38:27.110Z,3080
2019-05-21T09:39:20.521Z,3280
2019-05-21T09:40:21.371Z,3420
2019-05-21T09:41:21.038Z,3408
2019-05-21T09:42:21.312Z,3328
2019-05-21T09:43:20.988Z,3452
2019-05-21T09:44:20.732Z,3428
2019-05-21T09:45:20.969Z,3316
2019-05-21T09:46:22.394Z,3256
2019-05-21T09:47:21.256Z,3284
2019-05-21T09:48:27.616Z,3276
2019-05-21T09:49:20.958Z,3340
2019-05-21T09:50:20.967Z,3568
2019-05-21T09:51:26.719Z,3756
2019-05-21T09:52:21.207Z,3808
2019-05-21T09:53:21.063Z,3932
2019-05-21T09:54:20.943Z,4040
2019-05-21T09:55:21.315Z,4156
2019-05-21T09:56:20.719Z,4248
2019-05-21T09:57:20.686Z,4200
2019-05-21T09:58:22.460Z,4592
2019-05-21T09:59:24.325Z,4968
2019-05-21T10:00:21.222Z,5060
2019-05-21T10:01:21.177Z,4944
2019-05-21T10:02:20.672Z,4708
2019-05-21T10:03:20.917Z,4620
2019-05-21T10:04:21.199Z,4428
2019-05-21T10:05:20.913Z,4308
2019-05-21T10:06:20.913Z,4052
2019-05-21T10:07:40.968Z,4068
2019-05-21T10:08:20.675Z,4224
2019-05-21T10:09:27.471Z,4444
2019-05-21T10:10:24.217Z,4524
2019-05-21T10:11:20.648Z,4604
2019-05-21T10:12:21.300Z,4468
2019-05-21T10:13:21.131Z,4504
2019-05-21T10:14:21.167Z,4432
2019-05-21T10:15:20.700Z,4584
2019-05-21T10:16:21.123Z,4304
2019-05-21T10:17:21.179Z,4456
2019-05-21T10:18:20.883Z,4252
2019-05-21T10:19:20.872Z,4248
2019-05-21T10:20:23.685Z,4076
2019-05-21T10:21:20.615Z,3908
2019-05-21T10:22:21.120Z,3976
2019-05-21T10:23:20.611Z,3972
2019-05-21T10:24:21.104Z,3992
2019-05-21T10:25:22.805Z,3904
2019-05-21T10:26:20.848Z,3948
2019-05-21T10:27:21.186Z,3620
2019-05-21T10:28:20.619Z,3456
2019-05-21T10:29:20.827Z,3460
2019-05-21T10:30:21.698Z,3752
2019-05-21T10:31:24.148Z,3572
2019-05-21T10:32:20.872Z,3356
2019-05-21T10:33:21.067Z,3412
2019-05-21T10:34:20.849Z,3632
2019-05-21T10:35:20.850Z,3532
2019-05-21T10:36:21.193Z,3268
2019-05-21T10:37:20.820Z,3716
2019-05-21T10:38:21.128Z,3524
2019-05-21T10:39:20.869Z,3436
2019-05-21T10:40:20.827Z,3048
2019-05-21T10:41:23.590Z,2912
2019-05-21T10:42:23.858Z,2972
2019-05-21T10:43:20.397Z,2964
2019-05-21T10:44:20.821Z,3004
2019-05-21T10:45:20.850Z,2916
2019-05-21T10:46:20.805Z,2920
2019-05-21T10:47:23.585Z,3228
2019-05-21T10:48:21.157Z,3148
2019-05-21T10:49:20.802Z,3148
2019-05-21T10:50:21.050Z,3044
2019-05-21T10:51:20.541Z,2816
2019-05-21T10:52:24.084Z,2692
2019-05-21T10:53:24.157Z,2680
2019-05-21T10:54:21.077Z,2676
2019-05-21T10:55:23.272Z,2888
2019-05-21T10:56:21.015Z,2824
2019-05-21T10:57:21.059Z,2744
2019-05-21T10:58:20.766Z,2740
2019-05-21T10:59:21.022Z,2808
2019-05-21T11:00:25.147Z,2892
2019-05-21T11:01:20.764Z,2980
2019-05-21T11:02:20.496Z,3216
2019-05-21T11:03:26.955Z,3240
2019-05-21T11:04:20.810Z,3140
2019-05-21T11:05:20.746Z,3240
2019-05-21T11:06:21.001Z,2872
2019-05-21T11:07:20.981Z,2656
2019-05-21T11:08:30.989Z,2832
2019-05-21T11:09:21.050Z,3112
2019-05-21T11:10:21.294Z,3420
2019-05-21T11:11:25.808Z,3796
2019-05-21T11:12:21.005Z,3672
2019-05-21T11:13:22.390Z,3200
2019-05-21T11:14:23.761Z,3444
2019-05-21T11:15:21.080Z,3436
2019-05-21T11:16:20.731Z,3708
2019-05-21T11:17:20.881Z,3832
2019-05-21T11:18:20.953Z,3624
2019-05-21T11:19:20.712Z,3556
2019-05-21T11:20:20.959Z,3420
2019-05-21T11:21:21.063Z,3320
2019-05-21T11:22:20.714Z,3472
2019-05-21T11:23:20.940Z,3464
2019-05-21T11:24:26.728Z,3184
2019-05-21T11:25:23.790Z,3184
2019-05-21T11:26:20.724Z,3192
2019-05-21T11:27:20.702Z,3328
2019-05-21T11:28:20.942Z,3284
2019-05-21T11:29:20.946Z,3324
2019-05-21T11:30:20.934Z,3220
2019-05-21T11:31:20.871Z,3088
2019-05-21T11:32:20.429Z,3284
2019-05-21T11:33:20.693Z,3440
2019-05-21T11:34:20.949Z,3608
2019-05-21T11:35:23.704Z,4016
2019-05-21T11:36:20.660Z,3944
2019-05-21T11:37:20.923Z,3808
2019-05-21T11:38:20.975Z,4068
2019-05-21T11:39:20.663Z,3868
2019-05-21T11:40:21.049Z,3452
2019-05-21T11:41:21.022Z,3284
2019-05-21T11:42:20.674Z,3208
2019-05-21T11:43:20.734Z,3316
2019-05-21T11:44:20.640Z,3452
2019-05-21T11:45:37.960Z,3556
2019-05-21T11:46:23.670Z,3616
2019-05-21T11:47:20.402Z,3536
2019-05-21T11:48:21.745Z,3424
2019-05-21T11:49:20.434Z,3492
2019-05-21T11:50:20.883Z,3576
2019-05-21T11:51:21.309Z,3488
2019-05-21T11:52:20.886Z,3616
2019-05-21T11:53:20.893Z,3696
2019-05-21T11:54:20.885Z,3676
2019-05-21T11:55:20.883Z,3672
2019-05-21T11:56:23.791Z,3624
2019-05-21T11:57:23.154Z,3764
2019-05-21T11:58:20.666Z,4224
2019-05-21T11:59:20.746Z,4324
2019-05-21T12:00:23.989Z,4272
2019-05-21T12:01:20.656Z,4544
2019-05-21T12:02:20.468Z,4580
2019-05-21T12:03:20.692Z,4664
2019-05-21T12:04:20.850Z,4736
2019-05-21T12:05:20.351Z,4472
2019-05-21T12:06:20.933Z,4736
2019-05-21T12:07:23.630Z,4944
2019-05-21T12:08:20.364Z,5340
2019-05-21T12:09:20.633Z,5348
2019-05-21T12:10:20.591Z,5364
2019-05-21T12:11:20.514Z,5460
2019-05-21T12:12:20.579Z,5672
2019-05-21T12:13:25.166Z,5664
2019-05-21T12:14:20.587Z,5712
2019-05-21T12:15:20.585Z,6000
2019-05-21T12:16:20.591Z,6228
2019-05-21T12:17:20.635Z,6272
2019-05-21T12:18:22.010Z,6224
2019-05-21T12:19:20.861Z,6628
2019-05-21T12:20:37.770Z,6664
2019-05-21T12:21:20.563Z,6708
2019-05-21T12:22:20.560Z,6680
2019-05-21T12:23:20.610Z,7176
2019-05-21T12:24:20.317Z,7216
2019-05-21T12:25:20.551Z,6540
2019-05-21T12:26:20.668Z,6232
2019-05-21T12:27:20.547Z,6020
2019-05-21T12:28:23.590Z,6480
2019-05-21T12:29:23.946Z,6788
2019-05-21T12:30:20.545Z,6692
2019-05-21T12:31:20.530Z,6480
2019-05-21T12:32:23.388Z,6056
2019-05-21T12:33:20.041Z,5840
2019-05-21T12:34:20.345Z,5680
2019-05-21T12:35:20.286Z,5392
2019-05-21T12:36:20.799Z,5148
2019-05-21T12:37:20.650Z,4904
2019-05-21T12:38:20.791Z,4944
2019-05-21T12:39:26.401Z,5084
2019-05-21T12:40:23.574Z,5192
2019-05-21T12:41:21.354Z,5228
2019-05-21T12:42:20.563Z,5252
2019-05-21T12:43:20.291Z,5232
2019-05-21T12:44:20.778Z,5172
2019-05-21T12:45:20.534Z,5036
2019-05-21T12:46:20.516Z,5188
2019-05-21T12:47:20.015Z,5088
2019-05-21T12:48:20.537Z,5100
2019-05-21T12:49:22.511Z,5120
2019-05-21T12:50:23.345Z,5068
2019-05-21T12:51:20.329Z,5080
2019-05-21T12:52:20.284Z,5012
2019-05-21T12:53:23.265Z,4716
2019-05-21T12:54:20.748Z,4316
2019-05-21T12:55:20.743Z,4156
2019-05-21T12:56:20.813Z,4244
2019-05-21T12:57:20.499Z,4196
2019-05-21T12:58:20.529Z,4052
2019-05-21T12:59:20.499Z,3916
2019-05-21T13:00:22.112Z,3608
2019-05-21T13:01:23.534Z,3824
2019-05-21T13:02:20.478Z,3928
2019-05-21T13:03:20.745Z,3972
2019-05-21T13:04:20.563Z,4188
2019-05-21T13:05:20.537Z,3752
2019-05-21T13:06:20.781Z,3600
2019-05-21T13:07:20.907Z,3748
2019-05-21T13:08:20.487Z,3652
2019-05-21T13:09:38.645Z,3984
2019-05-21T13:10:20.853Z,4020
2019-05-21T13:11:23.745Z,3876
2019-05-21T13:12:23.495Z,3816
2019-05-21T13:13:20.736Z,3784
2019-05-21T13:14:25.689Z,4444
2019-05-21T13:15:20.221Z,4624
2019-05-21T13:16:20.258Z,4216
2019-05-21T13:17:20.453Z,4124
2019-05-21T13:18:20.464Z,4236
2019-05-21T13:19:20.716Z,4640
2019-05-21T13:20:21.561Z,4256
2019-05-21T13:21:20.444Z,3452
2019-05-21T13:22:23.228Z,3768
2019-05-21T13:23:20.246Z,3760
2019-05-21T13:24:20.227Z,3524
2019-05-21T13:25:20.726Z,3136
2019-05-21T13:26:20.699Z,3304
2019-05-21T13:27:20.402Z,3000
2019-05-21T13:28:20.417Z,2852
2019-05-21T13:29:20.462Z,2772
2019-05-21T13:30:20.180Z,2812
2019-05-21T13:31:20.673Z,2940
2019-05-21T13:32:20.177Z,2888
2019-05-21T13:33:24.053Z,2764
2019-05-21T13:34:20.189Z,2988
2019-05-21T13:35:20.454Z,3280
2019-05-21T13:36:20.406Z,4148
2019-05-21T13:37:20.412Z,4132
2019-05-21T13:38:21.051Z,4196
2019-05-21T13:39:20.654Z,4560
2019-05-21T13:40:20.654Z,4500
2019-05-21T13:41:20.412Z,4904
2019-05-21T13:42:20.411Z,4412
2019-05-21T13:43:25.937Z,4772
2019-05-21T13:44:26.957Z,5000
2019-05-21T13:45:20.393Z,4716
2019-05-21T13:46:20.151Z,4952
2019-05-21T13:47:20.397Z,5000